Time;durP1;ratioP1;P1;durP2;ratioP2;P2;SDS_P1;SDS_P2;PMS_P1;PMS_P2;Temp;Humidity;BMP_temperature;BMP_pressure;BME280_temperature;BME280_humidity;BME280_pressure;Samples;Min_cycle;Max_cycle;Signal;HPM_P1;HPM_P2
2022/04/08 00:01:36;;;;;;;0.00;0.00;;;;;;;;;;4984610;28;20042;-83
2022/04/08 00:04:02;;;;;;;0.00;0.00;;;;;;;;;;4984463;28;20034;-83
2022/04/08 00:06:28;;;;;;;0.10;0.10;;;;;;;;;;4967696;28;20121;-83
2022/04/08 00:08:54;;;;;;;0.00;0.00;;;;;;;;;;4982411;28;20438;-83
2022/04/08 00:11:20;;;;;;;0.00;0.00;;;;;;;;;;4983756;28;20548;-83
2022/04/08 00:13:51;;;;;;;0.10;0.10;;;;;;;;;;4983053;28;20101;-83
2022/04/08 00:16:17;;;;;;;0.13;0.13;;;;;;;;;;4981895;28;20038;-83
2022/04/08 00:18:45;;;;;;;0.10;0.10;;;;;;;;;;4982044;28;20105;-83
2022/04/08 00:21:11;;;;;;;0.00;0.00;;;;;;;;;;4983048;28;20088;-82
2022/04/08 00:23:37;;;;;;;0.03;0.03;;;;;;;;;;4983545;28;20120;-83
2022/04/08 00:26:03;;;;;;;0.00;0.00;;;;;;;;;;4981927;28;20110;-83
2022/04/08 00:28:30;;;;;;;0.28;0.28;;;;;;;;;;4983364;28;20034;-83
2022/04/08 00:30:56;;;;;;;0.10;0.10;;;;;;;;;;4984808;28;20038;-82
2022/04/08 00:33:22;;;;;;;0.00;0.00;;;;;;;;;;4981270;28;20061;-83
2022/04/08 00:35:48;;;;;;;0.00;0.00;;;;;;;;;;4982073;28;20027;-82
2022/04/08 00:38:14;;;;;;;0.00;0.00;;;;;;;;;;4981765;28;20037;-83
2022/04/08 00:40:40;;;;;;;0.10;0.10;;;;;;;;;;4983132;28;20520;-83
2022/04/08 00:43:13;;;;;;;0.00;0.00;;;;;;;;;;4983090;28;20918;-83
2022/04/08 00:45:39;;;;;;;0.60;0.52;;;;;;;;;;4981422;28;20038;-82
2022/04/08 00:48:07;;;;;;;0.10;0.10;;;;;;;;;;4981286;28;20034;-83
2022/04/08 00:50:34;;;;;;;0.10;0.10;;;;;;;;;;4981114;28;20565;-83
2022/04/08 00:53:01;;;;;;;1.25;0.63;;;;;;;;;;4983704;28;20034;-83
2022/04/08 00:55:27;;;;;;;;;;;;;;;;;;4982039;28;20049;-83
2022/04/08 00:57:53;;;;;;;0.15;0.15;;;;;;;;;;4988239;28;19913;-83
2022/04/08 01:00:22;;;;;;;0.00;0.00;;;;;;;;;;4985306;28;20402;-83
2022/04/08 01:02:48;;;;;;;0.00;0.00;;;;;;;;;;4980773;28;20038;-83
2022/04/08 01:05:14;;;;;;;0.10;0.10;;;;;;;;;;4981144;28;20023;-81
2022/04/08 01:07:41;;;;;;;0.00;0.00;;;;;;;;;;4982598;28;20046;-83
2022/04/08 01:10:07;;;;;;;0.00;0.00;;;;;;;;;;4982808;28;20273;-86
2022/04/08 01:12:33;;;;;;;0.00;0.00;;;;;;;;;;4982930;28;20080;-84
2022/04/08 01:14:59;;;;;;;0.10;0.10;;;;;;;;;;4982021;28;20026;-83
2022/04/08 01:17:26;;;;;;;0.10;0.10;;;;;;;;;;4983453;28;20394;-83
2022/04/08 01:19:52;;;;;;;0.10;0.10;;;;;;;;;;4982492;28;20034;-84
2022/04/08 01:22:19;;;;;;;0.10;0.10;;;;;;;;;;4984625;28;20034;-84
2022/04/08 01:24:47;;;;;;;0.10;0.10;;;;;;;;;;4982585;28;20052;-82
2022/04/08 01:27:13;;;;;;;0.40;0.40;;;;;;;;;;4981556;28;20033;-82
2022/04/08 01:29:39;;;;;;;0.10;0.10;;;;;;;;;;4983058;28;20510;-83
2022/04/08 01:32:05;;;;;;;0.10;0.10;;;;;;;;;;4980906;28;20171;-83
2022/04/08 01:34:31;;;;;;;0.00;0.00;;;;;;;;;;4983431;28;20034;-83
2022/04/08 01:36:57;;;;;;;0.00;0.00;;;;;;;;;;4981994;28;20084;-83
2022/04/08 01:39:23;;;;;;;0.53;0.40;;;;;;;;;;4979166;28;20039;-83
2022/04/08 01:41:49;;;;;;;0.00;0.00;;;;;;;;;;4965967;28;20030;-84
2022/04/08 01:44:15;;;;;;;0.00;0.00;;;;;;;;;;4981888;28;20580;-83
2022/04/08 01:46:41;;;;;;;0.00;0.00;;;;;;;;;;4983070;28;20031;-83
2022/04/08 01:49:07;;;;;;;0.10;0.10;;;;;;;;;;4984664;28;20034;-83
2022/04/08 01:51:33;;;;;;;0.10;0.10;;;;;;;;;;4980878;28;20132;-83
2022/04/08 01:53:59;;;;;;;0.53;0.53;;;;;;;;;;4980598;28;20240;-83
2022/04/08 01:56:26;;;;;;;0.17;0.17;;;;;;;;;;4983077;28;20648;-83
2022/04/08 01:58:52;;;;;;;0.10;0.10;;;;;;;;;;4980813;28;20030;-83
2022/04/08 02:01:18;;;;;;;0.00;0.00;;;;;;;;;;4984061;28;20046;-83
2022/04/08 02:03:44;;;;;;;0.00;0.00;;;;;;;;;;4983214;28;20042;-84
2022/04/08 02:06:10;;;;;;;1.00;0.63;;;;;;;;;;4980570;28;20034;-84
2022/04/08 02:08:36;;;;;;;0.00;0.00;;;;;;;;;;4980766;28;20088;-84
2022/04/08 02:11:21;;;;;;;0.10;0.10;;;;;;;;;;4981778;28;20038;-83
2022/04/08 02:13:47;;;;;;;0.10;0.10;;;;;;;;;;4996130;28;20641;-83
2022/04/08 02:16:13;;;;;;;2.50;1.13;;;;;;;;;;4985307;28;20034;-84
2022/04/08 02:18:39;;;;;;;0.23;0.23;;;;;;;;;;4984367;28;20053;-84
2022/04/08 02:21:05;;;;;;;1.08;0.88;;;;;;;;;;4984843;28;20289;-84
2022/04/08 02:23:32;;;;;;;0.00;0.00;;;;;;;;;;4984217;28;20034;-83
2022/04/08 02:25:58;;;;;;;0.52;0.52;;;;;;;;;;4985304;28;20045;-83
2022/04/08 02:28:24;;;;;;;0.00;0.00;;;;;;;;;;4987021;28;20034;-84
2022/04/08 02:30:52;;;;;;;0.00;0.00;;;;;;;;;;4984957;28;20034;-84
2022/04/08 02:33:19;;;;;;;0.10;0.10;;;;;;;;;;4984449;28;20049;-81
2022/04/08 02:35:45;;;;;;;2.25;1.55;;;;;;;;;;4986046;28;20026;-82
2022/04/08 02:38:11;;;;;;;19.30;1.20;;;;;;;;;;4984210;28;20039;-82
2022/04/08 02:40:38;;;;;;;0.10;0.10;;;;;;;;;;4987009;28;20095;-83
2022/04/08 02:43:04;;;;;;;0.13;0.13;;;;;;;;;;4986761;28;20163;-82
2022/04/08 02:45:30;;;;;;;0.57;0.57;;;;;;;;;;4982414;28;20049;-84
2022/04/08 02:47:56;;;;;;;0.30;0.27;;;;;;;;;;4982421;28;20776;-84
2022/04/08 02:50:22;;;;;;;0.30;0.30;;;;;;;;;;4983919;28;20898;-84
2022/04/08 02:52:48;;;;;;;0.10;0.10;;;;;;;;;;4985066;28;20541;-85
2022/04/08 02:55:14;;;;;;;0.17;0.17;;;;;;;;;;4986897;28;20026;-85
2022/04/08 02:57:45;;;;;;;0.10;0.10;;;;;;;;;;4985781;28;20069;-85
2022/04/08 03:00:13;;;;;;;0.00;0.00;;;;;;;;;;4982153;28;20033;-82
2022/04/08 03:02:39;;;;;;;0.13;0.13;;;;;;;;;;4988973;28;20029;-84
2022/04/08 03:05:06;;;;;;;0.00;0.00;;;;;;;;;;4983579;28;20031;-85
2022/04/08 03:07:33;;;;;;;0.10;0.10;;;;;;;;;;4985585;28;20132;-82
2022/04/08 03:10:14;;;;;;;0.00;0.00;;;;;;;;;;4976062;28;20058;-83
2022/04/08 03:12:40;;;;;;;0.45;0.45;;;;;;;;;;4983557;28;20057;-81
2022/04/08 03:15:06;;;;;;;0.20;0.20;;;;;;;;;;4983208;28;20101;-81
2022/04/08 03:17:32;;;;;;;0.10;0.10;;;;;;;;;;4984792;28;20068;-81
2022/04/08 03:19:58;;;;;;;0.00;0.00;;;;;;;;;;4983420;28;20042;-81
2022/04/08 03:22:30;;;;;;;0.00;0.00;;;;;;;;;;4985585;28;20502;-81
2022/04/08 03:24:56;;;;;;;0.10;0.10;;;;;;;;;;4985729;28;20296;-81
2022/04/08 03:27:22;;;;;;;0.10;0.10;;;;;;;;;;4981814;28;20030;-82
2022/04/08 03:29:48;;;;;;;0.00;0.00;;;;;;;;;;4982771;28;20030;-83
2022/04/08 03:32:15;;;;;;;0.10;0.10;;;;;;;;;;4984171;28;20038;-83
2022/04/08 03:34:41;;;;;;;0.20;0.20;;;;;;;;;;4984765;28;20026;-83
2022/04/08 03:37:07;;;;;;;0.00;0.00;;;;;;;;;;4985197;28;20085;-82
2022/04/08 03:39:33;;;;;;;0.17;0.17;;;;;;;;;;4982984;28;20030;-82
2022/04/08 03:42:00;;;;;;;0.10;0.10;;;;;;;;;;4985482;28;20226;-82
2022/04/08 03:44:26;;;;;;;0.00;0.00;;;;;;;;;;4983745;28;20129;-82
2022/04/08 03:46:52;;;;;;;0.83;0.37;;;;;;;;;;4981933;28;20038;-82
2022/04/08 03:49:21;;;;;;;0.25;0.25;;;;;;;;;;4985929;28;20027;-83
2022/04/08 03:51:47;;;;;;;0.10;0.10;;;;;;;;;;4983652;28;20414;-84
2022/04/08 03:54:14;;;;;;;0.10;0.10;;;;;;;;;;4984038;28;20026;-82
2022/04/08 03:56:43;;;;;;;0.10;0.10;;;;;;;;;;4982934;28;20088;-83
2022/04/08 03:59:10;;;;;;;0.10;0.10;;;;;;;;;;4982724;28;20117;-84
2022/04/08 04:01:36;;;;;;;0.10;0.10;;;;;;;;;;4984894;28;20023;-84
2022/04/08 04:04:03;;;;;;;0.10;0.10;;;;;;;;;;4979826;28;20172;-84
2022/04/08 04:06:29;;;;;;;0.10;0.10;;;;;;;;;;4984801;28;20030;-83
2022/04/08 04:08:55;;;;;;;0.10;0.10;;;;;;;;;;4982885;28;20038;-84
2022/04/08 04:11:21;;;;;;;0.00;0.00;;;;;;;;;;4982390;28;20041;-83
2022/04/08 04:13:48;;;;;;;0.10;0.10;;;;;;;;;;4983367;28;20483;-82
2022/04/08 04:16:14;;;;;;;0.00;0.00;;;;;;;;;;4985855;28;20038;-86
2022/04/08 04:18:40;;;;;;;1.90;0.73;;;;;;;;;;4984854;28;20035;-87
2022/04/08 04:21:08;;;;;;;0.10;0.10;;;;;;;;;;4982706;28;20034;-85
2022/04/08 04:23:35;;;;;;;0.20;0.20;;;;;;;;;;4983895;28;20736;-91
2022/04/08 04:26:01;;;;;;;0.88;0.82;;;;;;;;;;4985303;28;20564;-84
2022/04/08 04:28:30;;;;;;;0.75;0.75;;;;;;;;;;4985171;28;20065;-85
2022/04/08 04:30:59;;;;;;;0.10;0.10;;;;;;;;;;4984657;28;20092;-85
2022/04/08 04:33:25;;;;;;;0.10;0.10;;;;;;;;;;4983179;28;20109;-85
2022/04/08 04:35:51;;;;;;;0.10;0.10;;;;;;;;;;4981887;28;20484;-85
2022/04/08 04:38:17;;;;;;;0.10;0.10;;;;;;;;;;4981842;28;20046;-86
2022/04/08 04:40:43;;;;;;;0.10;0.10;;;;;;;;;;4982105;28;20038;-85
2022/04/08 04:43:09;;;;;;;0.10;0.10;;;;;;;;;;4985115;28;20061;-83
2022/04/08 04:45:37;;;;;;;0.10;0.10;;;;;;;;;;4982083;28;20030;-84
2022/04/08 04:48:04;;;;;;;0.10;0.10;;;;;;;;;;4982992;28;20034;-87
2022/04/08 04:50:30;;;;;;;0.03;0.03;;;;;;;;;;4982432;28;20034;-86
2022/04/08 04:52:56;;;;;;;0.17;0.17;;;;;;;;;;4981273;28;20054;-85
2022/04/08 04:55:22;;;;;;;0.10;0.10;;;;;;;;;;4983522;28;20073;-87
2022/04/08 04:57:48;;;;;;;0.10;0.10;;;;;;;;;;4982146;28;20293;-87
2022/04/08 05:00:16;;;;;;;0.20;0.20;;;;;;;;;;4982234;28;20026;-87
2022/04/08 05:02:42;;;;;;;1.98;1.08;;;;;;;;;;4983287;28;20525;-88
2022/04/08 05:05:08;;;;;;;0.10;0.10;;;;;;;;;;4982929;28;20038;-87
2022/04/08 05:07:35;;;;;;;0.10;0.10;;;;;;;;;;4984373;28;20031;-83
2022/04/08 05:10:02;;;;;;;0.10;0.10;;;;;;;;;;4983040;28;20030;-83
2022/04/08 05:12:28;;;;;;;0.10;0.10;;;;;;;;;;4981730;28;20047;-84
2022/04/08 05:14:54;;;;;;;0.00;0.00;;;;;;;;;;4982155;28;20153;-82
2022/04/08 05:17:20;;;;;;;0.20;0.20;;;;;;;;;;4978100;28;20069;-83
2022/04/08 05:19:46;;;;;;;0.20;0.20;;;;;;;;;;4982345;28;20030;-83
2022/04/08 05:22:12;;;;;;;0.20;0.20;;;;;;;;;;4983094;28;20092;-83
2022/04/08 05:24:38;;;;;;;0.68;0.68;;;;;;;;;;4984071;28;20030;-83
2022/04/08 05:27:05;;;;;;;0.00;0.00;;;;;;;;;;4981880;28;20037;-84
2022/04/08 05:29:31;;;;;;;0.10;0.10;;;;;;;;;;4981188;28;20589;-83
2022/04/08 05:31:57;;;;;;;0.10;0.10;;;;;;;;;;4981455;28;20045;-83
2022/04/08 05:34:26;;;;;;;0.10;0.10;;;;;;;;;;4984578;28;20101;-83
2022/04/08 05:36:52;;;;;;;0.10;0.10;;;;;;;;;;4982559;28;20041;-83
2022/04/08 05:39:18;;;;;;;0.65;0.65;;;;;;;;;;4981584;28;20038;-83
2022/04/08 05:41:44;;;;;;;0.00;0.00;;;;;;;;;;4983149;28;20058;-83
2022/04/08 05:44:10;;;;;;;0.00;0.00;;;;;;;;;;4981472;28;20082;-84
2022/04/08 05:46:36;;;;;;;0.77;0.50;;;;;;;;;;4983843;28;20038;-83
2022/04/08 05:49:02;;;;;;;0.10;0.10;;;;;;;;;;4981852;28;20038;-83
2022/04/08 05:51:28;;;;;;;0.00;0.00;;;;;;;;;;4983569;28;20070;-83
2022/04/08 05:53:54;;;;;;;0.10;0.10;;;;;;;;;;4987823;28;20076;-82
2022/04/08 05:56:20;;;;;;;0.10;0.10;;;;;;;;;;4985521;28;20038;-83
2022/04/08 05:58:46;;;;;;;0.10;0.10;;;;;;;;;;4987426;28;20083;-83
2022/04/08 06:01:12;;;;;;;0.10;0.10;;;;;;;;;;4987293;28;20030;-84
2022/04/08 06:03:38;;;;;;;0.10;0.10;;;;;;;;;;4985242;28;20040;-84
2022/04/08 06:06:04;;;;;;;0.10;0.10;;;;;;;;;;4985596;28;20069;-83
2022/04/08 06:08:31;;;;;;;0.00;0.00;;;;;;;;;;4985645;28;20034;-87
2022/04/08 06:10:57;;;;;;;1.13;0.30;;;;;;;;;;4985195;28;20037;-87
2022/04/08 06:13:26;;;;;;;0.00;0.00;;;;;;;;;;4988487;28;20038;-88
2022/04/08 06:15:52;;;;;;;0.10;0.10;;;;;;;;;;4985528;28;20022;-88
2022/04/08 06:18:18;;;;;;;0.10;0.10;;;;;;;;;;4985115;28;20041;-87
2022/04/08 06:20:45;;;;;;;1.25;0.90;;;;;;;;;;4986760;28;20066;-87
2022/04/08 06:23:11;;;;;;;2.05;1.08;;;;;;;;;;4984877;28;20081;-87
2022/04/08 06:25:37;;;;;;;0.30;0.30;;;;;;;;;;4987340;28;20130;-88
2022/04/08 06:28:04;;;;;;;0.10;0.10;;;;;;;;;;4986447;28;20105;-88
2022/04/08 06:30:31;;;;;;;17.08;0.43;;;;;;;;;;4984649;28;20551;-88
2022/04/08 06:32:57;;;;;;;0.13;0.13;;;;;;;;;;4980582;28;20105;-87
2022/04/08 06:35:23;;;;;;;0.00;0.00;;;;;;;;;;4984896;28;20030;-87
2022/04/08 06:37:49;;;;;;;0.10;0.10;;;;;;;;;;4969708;28;20084;-88
2022/04/08 06:40:15;;;;;;;2.33;1.20;;;;;;;;;;4986544;28;20038;-88
2022/04/08 06:42:41;;;;;;;1.27;1.17;;;;;;;;;;4984874;28;20573;-87
2022/04/08 06:45:08;;;;;;;0.00;0.00;;;;;;;;;;4984626;28;20077;-89
2022/04/08 06:47:34;;;;;;;0.00;0.00;;;;;;;;;;4986094;28;20042;-87
2022/04/08 06:50:00;;;;;;;0.10;0.10;;;;;;;;;;4984275;28;20422;-87
2022/04/08 06:52:26;;;;;;;0.20;0.20;;;;;;;;;;4987370;28;20294;-88
2022/04/08 06:54:52;;;;;;;1.90;0.93;;;;;;;;;;4987593;28;20031;-87
2022/04/08 06:57:18;;;;;;;0.37;0.37;;;;;;;;;;4973091;28;20049;-89
2022/04/08 06:59:44;;;;;;;0.10;0.10;;;;;;;;;;4976057;28;20030;-87
2022/04/08 07:02:10;;;;;;;0.10;0.10;;;;;;;;;;4986943;28;20026;-87
2022/04/08 07:04:37;;;;;;;0.10;0.10;;;;;;;;;;4986159;28;20517;-88
2022/04/08 07:07:04;;;;;;;0.10;0.10;;;;;;;;;;4987655;28;20026;-88
2022/04/08 07:09:32;;;;;;;0.10;0.10;;;;;;;;;;4984044;28;20038;-84
2022/04/08 07:11:58;;;;;;;0.20;0.20;;;;;;;;;;4984373;28;20069;-84
2022/04/08 07:14:24;;;;;;;0.35;0.35;;;;;;;;;;4984007;28;20521;-84
2022/04/08 07:16:50;;;;;;;0.10;0.10;;;;;;;;;;4984449;28;20092;-83
2022/04/08 07:19:17;;;;;;;0.10;0.10;;;;;;;;;;4982940;28;20573;-84
2022/04/08 07:21:43;;;;;;;0.30;0.30;;;;;;;;;;4983381;28;20041;-84
2022/04/08 07:24:09;;;;;;;1.00;0.73;;;;;;;;;;4985282;28;20113;-83
2022/04/08 07:26:35;;;;;;;0.10;0.10;;;;;;;;;;4985859;28;20282;-83
2022/04/08 07:29:01;;;;;;;0.00;0.00;;;;;;;;;;4983689;28;20027;-83
2022/04/08 07:31:27;;;;;;;0.10;0.10;;;;;;;;;;4986037;28;20027;-84
2022/04/08 07:33:53;;;;;;;2.08;0.57;;;;;;;;;;4980264;28;20113;-83
2022/04/08 07:36:19;;;;;;;0.20;0.20;;;;;;;;;;4983655;28;20278;-83
2022/04/08 07:38:45;;;;;;;0.33;0.30;;;;;;;;;;4985862;28;20034;-83
2022/04/08 07:41:11;;;;;;;0.33;0.33;;;;;;;;;;4984002;28;20391;-84
2022/04/08 07:43:37;;;;;;;0.10;0.10;;;;;;;;;;4985308;28;20522;-83
2022/04/08 07:46:03;;;;;;;0.23;0.23;;;;;;;;;;4984598;28;20034;-83
2022/04/08 07:48:31;;;;;;;0.10;0.10;;;;;;;;;;4985664;28;20022;-83
2022/04/08 07:50:57;;;;;;;0.10;0.10;;;;;;;;;;4983328;28;20077;-84
2022/04/08 07:53:23;;;;;;;0.65;0.65;;;;;;;;;;4983381;28;20030;-83
2022/04/08 07:55:49;;;;;;;0.13;0.13;;;;;;;;;;4984791;28;20042;-83
2022/04/08 07:58:15;;;;;;;0.10;0.10;;;;;;;;;;4986094;28;20097;-83
2022/04/08 08:00:42;;;;;;;0.10;0.10;;;;;;;;;;4982766;28;20707;-83
2022/04/08 08:03:08;;;;;;;0.52;0.20;;;;;;;;;;4978836;28;20037;-83
2022/04/08 08:05:34;;;;;;;0.10;0.10;;;;;;;;;;4982311;28;20037;-83
2022/04/08 08:08:01;;;;;;;1.03;0.53;;;;;;;;;;4982844;28;20071;-83
2022/04/08 08:10:31;;;;;;;0.77;0.77;;;;;;;;;;4985637;28;20762;-83
2022/04/08 08:13:02;;;;;;;0.10;0.10;;;;;;;;;;4984156;28;20521;-83
2022/04/08 08:15:29;;;;;;;2.17;1.30;;;;;;;;;;4982949;28;20031;-83
2022/04/08 08:17:58;;;;;;;0.10;0.10;;;;;;;;;;4982365;28;20026;-83
2022/04/08 08:20:25;;;;;;;0.35;0.35;;;;;;;;;;4982251;28;20030;-83
2022/04/08 08:22:52;;;;;;;1.65;0.95;;;;;;;;;;4966851;28;20054;-85
2022/04/08 08:25:18;;;;;;;0.45;0.45;;;;;;;;;;4984115;28;20052;-85
2022/04/08 08:27:44;;;;;;;0.00;0.00;;;;;;;;;;4982145;28;20049;-84
2022/04/08 08:30:11;;;;;;;0.75;0.75;;;;;;;;;;4981939;28;20601;-85
2022/04/08 08:32:38;;;;;;;0.10;0.10;;;;;;;;;;4981815;28;20291;-85
2022/04/08 08:35:12;;;;;;;0.00;0.00;;;;;;;;;;4981953;28;20081;-84
2022/04/08 08:37:38;;;;;;;2.83;1.20;;;;;;;;;;4984164;28;20056;-85
2022/04/08 08:40:05;;;;;;;0.25;0.25;;;;;;;;;;4982005;28;20624;-85
2022/04/08 08:42:32;;;;;;;0.00;0.00;;;;;;;;;;4981817;28;20035;-85
2022/04/08 08:44:58;;;;;;;0.05;0.05;;;;;;;;;;5012466;28;20054;-85
2022/04/08 08:47:27;;;;;;;0.37;0.37;;;;;;;;;;5015374;28;20030;-85
2022/04/08 08:49:54;;;;;;;0.15;0.15;;;;;;;;;;4966670;28;20041;-85
2022/04/08 08:52:20;;;;;;;0.75;0.40;;;;;;;;;;4983320;28;20074;-84
2022/04/08 08:54:47;;;;;;;2.60;1.10;;;;;;;;;;4974831;28;20035;-85
2022/04/08 08:57:19;;;;;;;0.28;0.28;;;;;;;;;;4977007;28;20529;-85
2022/04/08 08:59:46;;;;;;;0.10;0.10;;;;;;;;;;4981729;28;20031;-85
2022/04/08 09:02:12;;;;;;;0.13;0.13;;;;;;;;;;4981313;28;20560;-85
2022/04/08 09:04:42;;;;;;;0.70;0.43;;;;;;;;;;4983811;28;20116;-86
2022/04/08 09:07:27;;;;;;;0.10;0.10;;;;;;;;;;4983583;28;20081;-85
2022/04/08 09:09:54;;;;;;;0.40;0.40;;;;;;;;;;4998709;28;20030;-76
2022/04/08 09:12:20;;;;;;;0.35;0.35;;;;;;;;;;4982518;28;20089;-77
2022/04/08 09:14:50;;;;;;;3.03;0.82;;;;;;;;;;4981496;28;20030;-77
2022/04/08 09:17:18;;;;;;;0.50;0.50;;;;;;;;;;4981587;28;20049;-77
2022/04/08 09:19:47;;;;;;;0.40;0.40;;;;;;;;;;4981517;28;20030;-77
2022/04/08 09:22:13;;;;;;;0.00;0.00;;;;;;;;;;4982856;28;20505;-77
2022/04/08 09:24:39;;;;;;;0.73;0.73;;;;;;;;;;4980063;28;20589;-77
2022/04/08 09:27:05;;;;;;;0.20;0.20;;;;;;;;;;4980050;28;20450;-77
2022/04/08 09:29:31;;;;;;;0.47;0.47;;;;;;;;;;4981516;28;20018;-77
2022/04/08 09:31:57;;;;;;;0.40;0.40;;;;;;;;;;4981413;28;20352;-77
2022/04/08 09:34:23;;;;;;;0.33;0.33;;;;;;;;;;4984679;28;20037;-77
2022/04/08 09:36:49;;;;;;;4.33;2.70;;;;;;;;;;4981566;28;20030;-77
2022/04/08 09:39:16;;;;;;;0.63;0.63;;;;;;;;;;4983237;28;20218;-77
2022/04/08 09:41:50;;;;;;;1.27;0.45;;;;;;;;;;4981397;28;20038;-77
2022/04/08 09:44:23;;;;;;;4.97;1.83;;;;;;;;;;4982478;28;20046;-77
2022/04/08 09:46:49;;;;;;;0.65;0.65;;;;;;;;;;4982104;28;20100;-77
2022/04/08 09:49:15;;;;;;;0.10;0.10;;;;;;;;;;4984338;28;20034;-76
2022/04/08 09:51:42;;;;;;;0.20;0.20;;;;;;;;;;4981384;28;20096;-77
2022/04/08 09:54:12;;;;;;;0.10;0.10;;;;;;;;;;4983550;28;20030;-77
2022/04/08 09:56:40;;;;;;;5.63;1.55;;;;;;;;;;4981311;28;20046;-77
2022/04/08 09:59:16;;;;;;;2.33;0.85;;;;;;;;;;4981229;28;20075;-77
2022/04/08 10:01:46;;;;;;;0.00;0.00;;;;;;;;;;4982929;28;25486;-77
2022/04/08 10:04:12;;;;;;;2.25;1.05;;;;;;;;;;4983937;28;20265;-77
2022/04/08 10:06:39;;;;;;;0.10;0.10;;;;;;;;;;4981195;28;20065;-77
2022/04/08 10:09:05;;;;;;;;;;;;;;;;;;4981733;28;20447;-77
2022/04/08 10:11:47;;;;;;;0.25;0.20;;;;;;;;;;4980775;28;19933;-77
2022/04/08 10:14:42;;;;;;;0.80;0.80;;;;;;;;;;4980827;28;20122;-77
2022/04/08 10:17:08;;;;;;;0.10;0.10;;;;;;;;;;4963124;28;20039;-77
2022/04/08 10:19:34;;;;;;;0.00;0.00;;;;;;;;;;4983524;28;20557;-77
2022/04/08 10:22:00;;;;;;;0.00;0.00;;;;;;;;;;4982253;28;20035;-77
2022/04/08 10:24:30;;;;;;;0.00;0.00;;;;;;;;;;4982804;28;20058;-77
2022/04/08 10:26:58;;;;;;;0.03;0.03;;;;;;;;;;4981119;28;20034;-77
2022/04/08 10:29:24;;;;;;;0.10;0.10;;;;;;;;;;4980533;28;20031;-77
2022/04/08 10:32:21;;;;;;;0.40;0.40;;;;;;;;;;4981440;28;20101;-77
2022/04/08 10:34:47;;;;;;;0.00;0.00;;;;;;;;;;4972845;28;20117;-77
2022/04/08 10:37:21;;;;;;;1.90;0.85;;;;;;;;;;4986075;28;20057;-76
2022/04/08 10:40:07;;;;;;;0.08;0.08;;;;;;;;;;4984421;28;20035;-77
2022/04/08 10:42:34;;;;;;;9.25;0.20;;;;;;;;;;4985242;28;20033;-77
2022/04/08 10:45:10;;;;;;;0.50;0.50;;;;;;;;;;4983914;28;20104;-77
2022/04/08 10:47:46;;;;;;;0.63;0.63;;;;;;;;;;4985379;28;20038;-77
2022/04/08 10:50:12;;;;;;;0.20;0.20;;;;;;;;;;4984546;28;20288;-77
2022/04/08 10:52:41;;;;;;;0.00;0.00;;;;;;;;;;4986481;28;20046;-77
2022/04/08 10:55:09;;;;;;;0.52;0.50;;;;;;;;;;4988423;28;20034;-77
2022/04/08 10:57:45;;;;;;;4.88;0.88;;;;;;;;;;4984182;28;20030;-76
2022/04/08 11:00:12;;;;;;;0.10;0.10;;;;;;;;;;4985885;28;20909;-77
2022/04/08 11:02:39;;;;;;;0.00;0.00;;;;;;;;;;4984565;28;20085;-76
2022/04/08 11:05:09;;;;;;;0.00;0.00;;;;;;;;;;4984126;28;20458;-77
2022/04/08 11:07:35;;;;;;;0.08;0.08;;;;;;;;;;4986338;28;20037;-77
2022/04/08 11:10:03;;;;;;;0.08;0.08;;;;;;;;;;4985545;28;20060;-77
2022/04/08 11:12:30;;;;;;;21.02;0.45;;;;;;;;;;4981775;28;20049;-77
2022/04/08 11:15:02;;;;;;;0.30;0.10;;;;;;;;;;4982591;28;20034;-77
2022/04/08 11:17:35;;;;;;;0.08;0.08;;;;;;;;;;4983955;28;20037;-77
2022/04/08 11:20:04;;;;;;;0.00;0.00;;;;;;;;;;4983665;28;20027;-77
2022/04/08 11:22:43;;;;;;;0.57;0.50;;;;;;;;;;4985660;28;20038;-77
2022/04/08 11:25:29;;;;;;;0.10;0.10;;;;;;;;;;4985497;28;20718;-77
2022/04/08 11:27:58;;;;;;;0.05;0.05;;;;;;;;;;4985505;28;20149;-77
2022/04/08 11:30:25;;;;;;;0.47;0.47;;;;;;;;;;4983645;28;20030;-78
2022/04/08 11:32:51;;;;;;;0.08;0.08;;;;;;;;;;4984039;28;20034;-78
2022/04/08 11:35:17;;;;;;;0.17;0.17;;;;;;;;;;4983566;28;20360;-77
2022/04/08 11:37:43;;;;;;;0.10;0.10;;;;;;;;;;4985714;28;20041;-77
2022/04/08 11:40:15;;;;;;;0.10;0.10;;;;;;;;;;4986538;28;20497;-77
2022/04/08 11:42:42;;;;;;;0.10;0.10;;;;;;;;;;4983175;28;20066;-78
2022/04/08 11:45:09;;;;;;;0.10;0.10;;;;;;;;;;4983296;28;20528;-77
2022/04/08 11:47:40;;;;;;;0.10;0.10;;;;;;;;;;4982219;28;20077;-77
2022/04/08 11:50:07;;;;;;;0.00;0.00;;;;;;;;;;5013163;28;20513;-77
2022/04/08 11:52:33;;;;;;;0.00;0.00;;;;;;;;;;4986177;28;20038;-78
2022/04/08 11:55:06;;;;;;;0.10;0.10;;;;;;;;;;4986745;28;20081;-77
2022/04/08 11:57:34;;;;;;;0.00;0.00;;;;;;;;;;4982701;28;20030;-78
2022/04/08 12:00:01;;;;;;;0.10;0.10;;;;;;;;;;4982752;28;20030;-77
2022/04/08 12:02:29;;;;;;;0.00;0.00;;;;;;;;;;4983087;28;20030;-77
2022/04/08 12:04:55;;;;;;;0.10;0.10;;;;;;;;;;4982971;28;20486;-78
2022/04/08 12:07:28;;;;;;;0.10;0.10;;;;;;;;;;4986267;28;20045;-78
2022/04/08 12:09:54;;;;;;;0.98;0.65;;;;;;;;;;4998202;28;20518;-77
2022/04/08 12:12:24;;;;;;;0.00;0.00;;;;;;;;;;4980573;28;20096;-77
2022/04/08 12:14:50;;;;;;;0.00;0.00;;;;;;;;;;4982520;28;20030;-77
2022/04/08 12:17:16;;;;;;;0.30;0.30;;;;;;;;;;4982237;28;20034;-77
2022/04/08 12:19:43;;;;;;;0.03;0.03;;;;;;;;;;4984120;28;20268;-77
2022/04/08 12:22:13;;;;;;;0.10;0.10;;;;;;;;;;4984167;28;20068;-78
2022/04/08 12:24:40;;;;;;;0.10;0.10;;;;;;;;;;4983552;28;20034;-77
2022/04/08 12:27:13;;;;;;;0.05;0.05;;;;;;;;;;4983449;28;20030;-78
2022/04/08 12:29:40;;;;;;;0.10;0.10;;;;;;;;;;4983145;28;20030;-78
2022/04/08 12:32:12;;;;;;;1.65;1.35;;;;;;;;;;4981774;28;20042;-77
2022/04/08 12:34:38;;;;;;;0.00;0.00;;;;;;;;;;4984476;28;20034;-78
2022/04/08 12:37:04;;;;;;;0.00;0.00;;;;;;;;;;4983776;28;20843;-77
2022/04/08 12:39:30;;;;;;;0.03;0.03;;;;;;;;;;4999909;28;20564;-77
2022/04/08 12:42:00;;;;;;;0.10;0.10;;;;;;;;;;4982560;28;20309;-78
2022/04/08 12:44:26;;;;;;;0.00;0.00;;;;;;;;;;4982095;28;20054;-77
2022/04/08 12:46:54;;;;;;;0.38;0.32;;;;;;;;;;4965460;28;20069;-78
2022/04/08 12:49:20;;;;;;;0.00;0.00;;;;;;;;;;4979751;28;20438;-77
2022/04/08 12:51:46;;;;;;;0.10;0.10;;;;;;;;;;4981821;28;20034;-78
2022/04/08 12:54:12;;;;;;;0.00;0.00;;;;;;;;;;4984632;28;20289;-78
2022/04/08 12:56:38;;;;;;;0.17;0.17;;;;;;;;;;4983229;28;20065;-78
2022/04/08 12:59:05;;;;;;;0.20;0.20;;;;;;;;;;4981466;28;20278;-78
2022/04/08 13:01:31;;;;;;;0.10;0.10;;;;;;;;;;4998869;28;20101;-78
2022/04/08 13:03:57;;;;;;;0.00;0.00;;;;;;;;;;4983135;28;20031;-77
2022/04/08 13:06:24;;;;;;;0.00;0.00;;;;;;;;;;4981716;28;20026;-78
2022/04/08 13:08:50;;;;;;;0.00;0.00;;;;;;;;;;4981680;28;20065;-85
2022/04/08 13:11:17;;;;;;;0.20;0.20;;;;;;;;;;4981936;28;20034;-86
2022/04/08 13:13:43;;;;;;;0.55;0.55;;;;;;;;;;4982074;28;20282;-86
2022/04/08 13:16:09;;;;;;;0.32;0.32;;;;;;;;;;4983510;28;20037;-85
2022/04/08 13:18:35;;;;;;;0.52;0.52;;;;;;;;;;4981730;28;20036;-85
2022/04/08 13:21:01;;;;;;;0.00;0.00;;;;;;;;;;4983134;28;20062;-85
2022/04/08 13:23:27;;;;;;;0.45;0.45;;;;;;;;;;4982229;28;20042;-85
2022/04/08 13:25:53;;;;;;;0.00;0.00;;;;;;;;;;4981747;28;20024;-85
2022/04/08 13:28:20;;;;;;;0.10;0.10;;;;;;;;;;4984900;28;20884;-85
2022/04/08 13:30:46;;;;;;;0.20;0.20;;;;;;;;;;4981562;28;20038;-86
2022/04/08 13:33:12;;;;;;;0.20;0.20;;;;;;;;;;4983393;28;20044;-85
2022/04/08 13:35:38;;;;;;;0.10;0.10;;;;;;;;;;4983211;28;20037;-85
2022/04/08 13:38:04;;;;;;;0.52;0.52;;;;;;;;;;4981382;28;20031;-85
2022/04/08 13:40:30;;;;;;;0.00;0.00;;;;;;;;;;4984137;28;20093;-85
2022/04/08 13:42:58;;;;;;;0.10;0.10;;;;;;;;;;4983050;28;20026;-86
2022/04/08 13:45:24;;;;;;;0.00;0.00;;;;;;;;;;4981664;28;21170;-85
2022/04/08 13:47:51;;;;;;;0.20;0.20;;;;;;;;;;4981839;28;20081;-85
2022/04/08 13:50:17;;;;;;;0.20;0.20;;;;;;;;;;4983021;28;20033;-85
2022/04/08 13:52:43;;;;;;;0.30;0.30;;;;;;;;;;4983005;28;20133;-85
2022/04/08 13:55:10;;;;;;;0.37;0.37;;;;;;;;;;4984924;28;20037;-85
2022/04/08 13:57:36;;;;;;;0.00;0.00;;;;;;;;;;4981688;28;21097;-85
2022/04/08 14:00:03;;;;;;;0.10;0.10;;;;;;;;;;4976897;28;20038;-85
2022/04/08 14:02:29;;;;;;;0.10;0.10;;;;;;;;;;4981210;28;20030;-85
2022/04/08 14:04:55;;;;;;;0.00;0.00;;;;;;;;;;4983109;28;20038;-86
2022/04/08 14:07:21;;;;;;;0.10;0.10;;;;;;;;;;4983300;28;20030;-85
2022/04/08 14:09:48;;;;;;;0.10;0.10;;;;;;;;;;4980907;28;20049;-85
2022/04/08 14:12:14;;;;;;;0.17;0.17;;;;;;;;;;4984980;28;20045;-86
2022/04/08 14:14:41;;;;;;;0.00;0.00;;;;;;;;;;4984644;28;20026;-85
2022/04/08 14:17:07;;;;;;;0.22;0.22;;;;;;;;;;4984252;28;20031;-85
2022/04/08 14:19:33;;;;;;;0.10;0.10;;;;;;;;;;4987030;28;20092;-87
2022/04/08 14:22:00;;;;;;;0.10;0.10;;;;;;;;;;4987201;28;20038;-84
2022/04/08 14:24:26;;;;;;;0.00;0.00;;;;;;;;;;4983643;28;20026;-86
2022/04/08 14:26:52;;;;;;;0.65;0.50;;;;;;;;;;4984612;28;20034;-85
2022/04/08 14:29:18;;;;;;;19.38;0.70;;;;;;;;;;4992473;28;20036;-85
2022/04/08 14:31:45;;;;;;;0.03;0.03;;;;;;;;;;4985594;28;20054;-85
2022/04/08 14:34:11;;;;;;;0.10;0.10;;;;;;;;;;4979811;28;20285;-84
2022/04/08 14:36:40;;;;;;;0.30;0.30;;;;;;;;;;4980484;28;20035;-84
2022/04/08 14:39:09;;;;;;;0.15;0.15;;;;;;;;;;4971027;28;20080;-84
2022/04/08 14:41:35;;;;;;;5.00;0.47;;;;;;;;;;4974204;28;20033;-84
2022/04/08 14:44:01;;;;;;;0.00;0.00;;;;;;;;;;4969162;28;20054;-85